Time;durP1;ratioP1;P1;durP2;ratioP2;P2;SDS_P1;SDS_P2;PMS_P1;PMS_P2;Temp;Humidity;BMP_temperature;BMP_pressure;BME280_temperature;BME280_humidity;BME280_pressure;Samples;Min_cycle;Max_cycle;Signal;HPM_P1;HPM_P2
2021/12/18 00:00:05;;;;;;;33.03;16.23;;;2.00;99.90;;;;;;5042342;28;20083;-82
2021/12/18 00:02:41;;;;;;;30.67;16.73;;;2.00;99.90;;;;;;5076569;28;20049;-82
2021/12/18 00:05:08;;;;;;;34.13;16.58;;;2.00;99.90;;;;;;5058885;28;20037;-81
2021/12/18 00:07:36;;;;;;;33.30;17.40;;;2.00;99.90;;;;;;5059322;28;20017;-81
2021/12/18 00:10:05;;;;;;;32.05;16.73;;;2.00;99.90;;;;;;5045746;28;20121;-83
2021/12/18 00:12:34;;;;;;;32.58;15.95;;;2.00;99.90;;;;;;5062036;28;20048;-81
2021/12/18 00:15:02;;;;;;;32.50;16.20;;;2.00;99.90;;;;;;5060664;28;20036;-82
2021/12/18 00:17:30;;;;;;;33.63;17.10;;;2.10;99.90;;;;;;5043527;28;20041;-83
2021/12/18 00:19:57;;;;;;;35.22;16.75;;;2.10;99.90;;;;;;5059923;28;20060;-81
2021/12/18 00:22:24;;;;;;;30.45;15.50;;;2.00;99.90;;;;;;5043018;28;20061;-80
2021/12/18 00:24:52;;;;;;;35.42;17.60;;;2.00;99.90;;;;;;5059619;28;20045;-81
2021/12/18 00:27:19;;;;;;;30.15;16.05;;;2.00;99.90;;;;;;5059091;28;20041;-81
2021/12/18 00:29:46;;;;;;;31.33;15.10;;;2.00;99.90;;;;;;5042820;28;20049;-83
2021/12/18 00:32:14;;;;;;;30.52;16.02;;;2.00;99.90;;;;;;5060156;28;20021;-81
2021/12/18 00:34:41;;;;;;;34.33;16.40;;;2.00;99.90;;;;;;5044757;28;20120;-82
2021/12/18 00:37:08;;;;;;;32.30;15.00;;;2.00;99.90;;;;;;5043902;28;20053;-81
2021/12/18 00:39:41;;;;;;;33.78;18.13;;;2.00;99.90;;;;;;5060110;28;20045;-81
2021/12/18 00:42:24;;;;;;;33.80;16.70;;;2.00;99.90;;;;;;5040418;28;20050;-83
2021/12/18 00:44:51;;;;;;;33.22;16.00;;;2.00;99.90;;;;;;5041963;28;20165;-83
2021/12/18 00:47:18;;;;;;;34.13;16.55;;;2.00;99.90;;;;;;5059253;28;20061;-82
2021/12/18 00:49:45;;;;;;;33.88;17.05;;;2.00;99.90;;;;;;5059333;28;20052;-82
2021/12/18 00:52:13;;;;;;;33.60;16.30;;;2.00;99.90;;;;;;5062398;28;20033;-84
2021/12/18 00:54:40;;;;;;;32.55;16.90;;;2.00;99.90;;;;;;5061438;28;20108;-83
2021/12/18 00:57:07;;;;;;;32.65;15.85;;;2.00;99.90;;;;;;5057711;28;20063;-81
2021/12/18 00:59:35;;;;;;;36.28;17.45;;;2.00;99.90;;;;;;5036887;28;20152;-82
2021/12/18 01:02:03;;;;;;;36.78;18.13;;;2.00;99.90;;;;;;5036496;28;20111;-82
2021/12/18 01:04:30;;;;;;;35.72;16.30;;;2.10;99.90;;;;;;5037489;28;20077;-83
2021/12/18 01:06:57;;;;;;;33.33;17.05;;;2.00;99.90;;;;;;5038209;28;20053;-82
2021/12/18 01:09:47;;;;;;;33.50;15.35;;;2.00;99.90;;;;;;5055228;28;20021;-83
2021/12/18 01:12:14;;;;;;;29.58;15.50;;;2.10;99.90;;;;;;5038094;28;20487;-81
2021/12/18 01:15:00;;;;;;;30.00;15.13;;;2.10;99.90;;;;;;5037992;28;20103;-81
2021/12/18 01:25:12;;;;;;;37.53;17.40;;;2.00;99.90;;;;;;5055443;28;20063;-82
2021/12/18 01:27:40;;;;;;;34.90;16.80;;;1.90;99.90;;;;;;5039849;28;20052;-81
2021/12/18 01:30:11;;;;;;;29.00;15.68;;;1.90;99.90;;;;;;5039362;28;20037;-81
2021/12/18 01:32:38;;;;;;;31.65;15.40;;;1.90;99.90;;;;;;5055502;28;20045;-83
2021/12/18 01:35:06;;;;;;;34.67;16.55;;;1.90;99.90;;;;;;5039996;28;20075;-83
2021/12/18 01:37:34;;;;;;;31.83;15.23;;;1.90;99.90;;;;;;5023340;28;20052;-82
2021/12/18 01:40:02;;;;;;;31.05;15.95;;;1.90;99.90;;;;;;5039100;28;20030;-82
2021/12/18 01:53:23;;;;;;;28.80;14.88;;;1.90;99.90;;;;;;5055287;28;20112;-81
2021/12/18 01:55:52;;;;;;;34.70;16.88;;;1.80;99.90;;;;;;5056109;28;20045;-84
2021/12/18 01:58:23;;;;;;;34.63;16.67;;;1.80;99.90;;;;;;5055932;28;20050;-83
2021/12/18 02:00:56;;;;;;;39.90;18.50;;;1.80;99.90;;;;;;5072962;28;20029;-83
2021/12/18 02:03:25;;;;;;;36.45;19.10;;;1.80;99.90;;;;;;5054891;28;20076;-81
2021/12/18 02:05:53;;;;;;;40.55;19.73;;;1.80;99.90;;;;;;5055101;28;20057;-81
2021/12/18 02:08:24;;;;;;;34.20;18.00;;;1.80;99.90;;;;;;5062465;28;20049;-81
2021/12/18 02:11:09;;;;;;;35.95;19.02;;;1.70;99.90;;;;;;5058378;28;20048;-82
2021/12/18 02:14:19;;;;;;;33.22;17.52;;;1.80;99.90;;;;;;5048365;28;20048;-81
2021/12/18 02:22:21;;;;;;;39.50;20.58;;;1.70;99.90;;;;;;5075148;28;20060;-81
2021/12/18 02:24:48;;;;;;;39.10;19.98;;;1.70;99.90;;;;;;5058411;28;20044;-81
2021/12/18 02:27:16;;;;;;;37.05;19.40;;;1.80;99.90;;;;;;5074989;28;20049;-80
2021/12/18 02:29:44;;;;;;;38.95;20.02;;;1.70;99.90;;;;;;5058699;28;20084;-81
2021/12/18 02:32:15;;;;;;;41.42;21.50;;;1.70;99.90;;;;;;5075047;28;20041;-81
2021/12/18 02:34:51;;;;;;;38.90;21.15;;;1.70;99.90;;;;;;5074346;28;20041;-83
2021/12/18 02:38:29;;;;;;;41.97;21.00;;;1.70;99.90;;;;;;5076072;28;20101;-81
2021/12/18 02:41:07;;;;;;;40.67;21.13;;;1.60;99.90;;;;;;5075118;28;20055;-81
2021/12/18 02:43:38;;;;;;;45.30;24.65;;;1.60;99.90;;;;;;5059066;28;20117;-81
2021/12/18 02:46:09;;;;;;;42.00;21.27;;;1.60;99.90;;;;;;5041967;28;20052;-82
2021/12/18 02:48:41;;;;;;;40.55;20.90;;;1.60;99.90;;;;;;5058219;28;20045;-82
2021/12/18 02:51:11;;;;;;;38.75;20.98;;;1.60;99.90;;;;;;5059165;28;20041;-83
2021/12/18 02:53:45;;;;;;;44.05;23.67;;;1.70;99.90;;;;;;5074384;28;20037;-81
2021/12/18 02:56:15;;;;;;;41.22;22.10;;;1.70;99.90;;;;;;5058301;28;20748;-84
2021/12/18 02:58:46;;;;;;;40.67;20.50;;;1.70;99.90;;;;;;5058730;28;20071;-81
2021/12/18 03:01:40;;;;;;;37.15;19.70;;;1.60;99.90;;;;;;5074710;28;20052;-84
2021/12/18 03:04:18;;;;;;;40.35;20.00;;;1.60;99.90;;;;;;5058495;28;20032;-81
2021/12/18 03:06:53;;;;;;;38.17;20.20;;;1.70;99.90;;;;;;5074341;28;20124;-81
2021/12/18 03:25:29;;;;;;;38.47;20.47;;;1.60;99.90;;;;;;5075097;28;20036;-81
2021/12/18 03:27:59;;;;;;;41.05;20.73;;;1.50;99.90;;;;;;5074942;28;20072;-81
2021/12/18 03:30:27;;;;;;;38.63;20.27;;;1.50;99.90;;;;;;5074751;28;20065;-81
2021/12/18 03:32:55;;;;;;;42.72;21.52;;;1.50;99.90;;;;;;5057962;28;20025;-82
2021/12/18 03:35:22;;;;;;;39.63;17.83;;;1.50;99.90;;;;;;5075720;28;20052;-81
2021/12/18 03:37:50;;;;;;;41.05;19.83;;;1.50;99.90;;;;;;5057996;28;20041;-83
2021/12/18 03:40:21;;;;;;;37.60;18.42;;;1.50;99.90;;;;;;5074442;28;20041;-83
2021/12/18 03:43:15;;;;;;;43.83;18.77;;;1.50;99.90;;;;;;5074121;28;20565;-82
2021/12/18 03:45:43;;;;;;;40.08;18.58;;;1.50;99.90;;;;;;5058156;28;20049;-83
2021/12/18 03:48:10;;;;;;;37.20;18.75;;;1.50;99.90;;;;;;5074865;28;20041;-83
2021/12/18 03:50:38;;;;;;;35.75;19.60;;;1.50;99.90;;;;;;5074543;28;20017;-81
2021/12/18 03:53:06;;;;;;;38.65;18.95;;;1.50;99.90;;;;;;5058211;28;20044;-81
2021/12/18 03:55:34;;;;;;;38.13;17.65;;;1.50;99.90;;;;;;5058080;28;20065;-81
2021/12/18 03:58:01;;;;;;;41.55;18.13;;;1.50;99.90;;;;;;5057785;28;20041;-82
2021/12/18 04:00:28;;;;;;;37.85;17.90;;;1.50;99.90;;;;;;5057961;28;20048;-83
2021/12/18 04:02:55;;;;;;;35.90;17.63;;;1.50;99.90;;;;;;5074470;28;20049;-81
2021/12/18 04:05:24;;;;;;;35.90;16.45;;;1.50;99.90;;;;;;5074211;28;20075;-80
2021/12/18 04:07:51;;;;;;;34.13;14.85;;;1.50;99.90;;;;;;5057495;28;20049;-81
2021/12/18 04:10:19;;;;;;;37.53;17.23;;;1.40;99.90;;;;;;5058081;28;20048;-83
2021/12/18 04:12:48;;;;;;;35.80;16.73;;;1.40;99.90;;;;;;5074039;28;20041;-82
2021/12/18 04:15:15;;;;;;;33.83;15.05;;;1.40;99.90;;;;;;5074469;28;20132;-82
2021/12/18 04:17:43;;;;;;;36.17;15.82;;;1.40;99.90;;;;;;5057483;28;20063;-83
2021/12/18 04:20:10;;;;;;;38.25;15.55;;;1.40;99.90;;;;;;5074985;28;20041;-81
2021/12/18 04:22:38;;;;;;;33.40;14.95;;;1.40;99.90;;;;;;5059617;28;20069;-82
2021/12/18 04:25:05;;;;;;;31.73;15.68;;;1.40;99.90;;;;;;5058464;28;20052;-82
2021/12/18 04:27:33;;;;;;;37.58;15.80;;;1.30;99.90;;;;;;5075547;28;20056;-81
2021/12/18 04:30:03;;;;;;;32.15;14.80;;;1.30;99.90;;;;;;5062521;28;20029;-80
2021/12/18 04:32:31;;;;;;;33.50;14.18;;;1.30;99.90;;;;;;5078077;28;20045;-80
2021/12/18 04:34:58;;;;;;;35.17;14.85;;;1.40;99.90;;;;;;5078695;28;20041;-82
2021/12/18 04:37:25;;;;;;;33.40;14.32;;;1.30;99.90;;;;;;5061814;28;20040;-81
2021/12/18 04:39:52;;;;;;;39.78;15.50;;;1.40;99.90;;;;;;5061961;28;20063;-83
2021/12/18 04:42:20;;;;;;;29.55;14.70;;;1.30;99.90;;;;;;5061671;28;20029;-81
2021/12/18 04:44:47;;;;;;;29.25;13.57;;;1.30;99.90;;;;;;5078112;28;20052;-81
2021/12/18 04:47:15;;;;;;;31.08;15.27;;;1.30;99.90;;;;;;5061938;28;20052;-81
2021/12/18 04:49:42;;;;;;;32.08;13.45;;;1.30;99.90;;;;;;5077968;28;20028;-81
2021/12/18 04:52:09;;;;;;;33.28;15.32;;;1.30;99.90;;;;;;5061344;28;20101;-81
2021/12/18 04:54:37;;;;;;;30.30;14.15;;;1.30;99.90;;;;;;5078320;28;20096;-83
2021/12/18 04:57:04;;;;;;;30.20;12.43;;;1.30;99.90;;;;;;5078544;28;20037;-81
2021/12/18 04:59:33;;;;;;;26.45;13.27;;;1.30;99.90;;;;;;5061520;28;20044;-81
2021/12/18 05:02:16;;;;;;;29.52;13.55;;;1.30;99.90;;;;;;5078376;28;20041;-81
2021/12/18 05:04:44;;;;;;;26.63;13.25;;;1.30;99.90;;;;;;5077208;28;20052;-82
2021/12/18 05:07:11;;;;;;;29.55;13.70;;;1.30;99.90;;;;;;5078151;28;20045;-81
2021/12/18 05:09:40;;;;;;;31.42;13.18;;;1.20;99.90;;;;;;5077217;28;20033;-81
2021/12/18 05:12:09;;;;;;;30.52;13.02;;;1.20;99.90;;;;;;5077065;28;20037;-81
2021/12/18 05:14:37;;;;;;;31.30;14.30;;;1.30;99.90;;;;;;5060682;28;20031;-81
2021/12/18 05:17:04;;;;;;;30.75;13.20;;;1.30;99.90;;;;;;5060319;28;20077;-80
2021/12/18 05:19:33;;;;;;;30.58;12.68;;;1.30;99.90;;;;;;5060491;28;20033;-83
2021/12/18 05:22:00;;;;;;;26.73;12.48;;;1.30;99.90;;;;;;5077030;28;20056;-80
2021/12/18 05:24:27;;;;;;;21.52;10.90;;;1.30;99.90;;;;;;5077649;28;20052;-81
2021/12/18 05:26:55;;;;;;;19.95;9.70;;;1.30;99.90;;;;;;5077959;28;20116;-81
2021/12/18 05:29:23;;;;;;;24.40;10.65;;;1.20;99.90;;;;;;5060909;28;20411;-82
2021/12/18 05:31:50;;;;;;;25.52;10.95;;;1.30;99.90;;;;;;5060969;28;20068;-80
2021/12/18 05:34:22;;;;;;;25.92;10.85;;;1.30;99.90;;;;;;5076241;28;20045;-82
2021/12/18 05:39:28;;;;;;;30.13;13.13;;;1.30;99.90;;;;;;5076855;28;20041;-81
2021/12/18 05:42:09;;;;;;;29.55;12.90;;;1.30;99.90;;;;;;5062814;28;20025;-81
2021/12/18 05:44:36;;;;;;;32.63;14.80;;;1.30;99.90;;;;;;5060765;28;20047;-81
2021/12/18 05:47:06;;;;;;;32.78;15.10;;;1.30;99.90;;;;;;5044860;28;20040;-81
2021/12/18 05:49:33;;;;;;;33.85;14.57;;;1.30;99.90;;;;;;5060716;28;20045;-81
2021/12/18 05:52:00;;;;;;;32.92;13.27;;;1.30;99.90;;;;;;5044438;28;20097;-82
2021/12/18 05:54:28;;;;;;;29.83;14.50;;;1.30;99.90;;;;;;5043838;28;20045;-81
2021/12/18 05:56:55;;;;;;;33.30;14.90;;;1.20;99.90;;;;;;5060266;28;20021;-81
2021/12/18 05:59:22;;;;;;;29.92;12.90;;;1.20;99.90;;;;;;5043975;28;20036;-81
2021/12/18 06:01:50;;;;;;;24.45;10.20;;;1.20;99.90;;;;;;5040221;28;20050;-83
2021/12/18 06:04:17;;;;;;;23.00;10.20;;;1.20;99.90;;;;;;5039955;28;20050;-80
2021/12/18 06:06:44;;;;;;;25.38;11.40;;;1.20;99.90;;;;;;5047148;28;20051;-81
2021/12/18 06:09:12;;;;;;;27.17;11.40;;;1.30;99.90;;;;;;5047560;28;20041;-81
2021/12/18 06:11:41;;;;;;;24.25;12.35;;;1.30;99.90;;;;;;5048192;28;20067;-80
2021/12/18 06:14:08;;;;;;;27.23;12.23;;;1.20;99.90;;;;;;5049704;28;20087;-81
2021/12/18 06:16:35;;;;;;;30.17;14.40;;;1.20;99.90;;;;;;5054695;28;20065;-82
2021/12/18 06:19:02;;;;;;;24.48;12.95;;;1.20;99.90;;;;;;5049837;28;20403;-82
2021/12/18 06:21:30;;;;;;;25.17;10.77;;;1.20;99.90;;;;;;5048845;28;20049;-80
2021/12/18 06:23:58;;;;;;;31.70;11.88;;;1.20;99.90;;;;;;5053216;28;20045;-81
2021/12/18 06:26:29;;;;;;;28.20;11.82;;;1.30;99.90;;;;;;5050350;28;20079;-82
2021/12/18 06:28:56;;;;;;;26.42;12.10;;;1.30;99.90;;;;;;5052481;28;20055;-81
2021/12/18 06:31:59;;;;;;;27.90;12.52;;;1.30;99.90;;;;;;5061455;28;20541;-81
2021/12/18 06:34:27;;;;;;;27.65;12.32;;;1.30;99.90;;;;;;5052395;28;20508;-81
2021/12/18 06:36:55;;;;;;;25.55;11.13;;;1.30;99.90;;;;;;5050868;28;20120;-81
2021/12/18 06:39:22;;;;;;;21.88;10.10;;;1.20;99.90;;;;;;5033204;28;20056;-82
2021/12/18 06:41:49;;;;;;;24.15;10.95;;;1.30;99.90;;;;;;5050336;28;20049;-80
2021/12/18 06:44:16;;;;;;;23.92;9.93;;;1.20;99.90;;;;;;5032954;28;20429;-80
2021/12/18 06:46:44;;;;;;;24.30;10.43;;;1.20;99.90;;;;;;5033557;28;20045;-81
2021/12/18 06:49:11;;;;;;;19.73;9.30;;;1.20;99.90;;;;;;5051072;28;20045;-81
2021/12/18 06:51:39;;;;;;;18.58;8.30;;;1.20;99.90;;;;;;5050493;28;20076;-82
2021/12/18 06:54:06;;;;;;;18.65;8.77;;;1.20;99.90;;;;;;5032823;28;20045;-80
2021/12/18 06:56:34;;;;;;;21.08;9.10;;;1.20;99.90;;;;;;5032346;28;20521;-81
2021/12/18 06:59:02;;;;;;;25.13;9.85;;;1.30;99.90;;;;;;5049810;28;20091;-82
2021/12/18 07:01:29;;;;;;;19.75;8.38;;;1.20;99.90;;;;;;5033364;28;20060;-80
2021/12/18 07:03:56;;;;;;;20.42;9.10;;;1.20;99.90;;;;;;5046931;28;20045;-80
2021/12/18 07:06:24;;;;;;;22.42;10.43;;;1.20;99.90;;;;;;5044615;28;20082;-82
2021/12/18 07:08:51;;;;;;;27.85;13.02;;;1.20;99.90;;;;;;5038309;28;20140;-82
2021/12/18 07:11:19;;;;;;;54.47;26.55;;;1.20;99.90;;;;;;5049838;28;20056;-80
2021/12/18 07:13:46;;;;;;;25.75;13.77;;;1.20;99.90;;;;;;5053795;28;20047;-81
2021/12/18 07:16:14;;;;;;;22.77;9.75;;;1.20;99.90;;;;;;5054822;28;20147;-81
2021/12/18 07:18:42;;;;;;;25.92;12.00;;;1.20;99.90;;;;;;5017260;28;20060;-82
2021/12/18 07:21:09;;;;;;;29.48;10.38;;;1.20;99.90;;;;;;5022711;28;20498;-81
2021/12/18 07:23:36;;;;;;;22.17;9.68;;;1.20;99.90;;;;;;5005628;28;20049;-82
2021/12/18 07:26:03;;;;;;;21.10;9.55;;;1.20;99.90;;;;;;4987964;28;20045;-82
2021/12/18 07:28:30;;;;;;;21.52;9.68;;;1.20;99.90;;;;;;4987761;28;20057;-80
2021/12/18 07:30:57;;;;;;;24.15;9.70;;;1.10;99.90;;;;;;5009509;28;20038;-82
2021/12/18 07:33:29;;;;;;;24.52;9.93;;;1.20;99.90;;;;;;4988627;28;20124;-82
2021/12/18 07:35:56;;;;;;;21.88;9.20;;;1.20;99.90;;;;;;5025482;28;20060;-82
2021/12/18 07:38:23;;;;;;;26.45;12.18;;;1.20;99.90;;;;;;5011938;28;20113;-82
2021/12/18 07:40:50;;;;;;;27.73;14.15;;;1.20;99.90;;;;;;5029476;28;20136;-80
2021/12/18 07:43:17;;;;;;;26.20;12.68;;;1.20;99.90;;;;;;5048414;28;20041;-81
2021/12/18 07:45:44;;;;;;;26.13;11.55;;;1.20;99.90;;;;;;5043560;28;20045;-80
2021/12/18 07:48:40;;;;;;;;;;;;;;;;;;;;;
2021/12/18 07:51:32;;;;;;;22.65;9.63;;;1.20;99.90;;;;;;5057129;28;20072;-80
2021/12/18 07:54:00;;;;;;;25.25;11.57;;;1.20;99.90;;;;;;5044250;28;20048;-82
2021/12/18 07:56:27;;;;;;;24.88;11.27;;;1.20;99.90;;;;;;5059620;28;20037;-82
2021/12/18 07:58:55;;;;;;;24.23;12.48;;;1.40;99.90;;;;;;5047889;28;20055;-81
2021/12/18 08:01:22;;;;;;;28.88;13.73;;;1.40;99.90;;;;;;5050267;28;20041;-82
2021/12/18 08:03:49;;;;;;;32.85;15.55;;;1.40;99.90;;;;;;5053663;28;20048;-82
2021/12/18 08:06:20;;;;;;;27.23;12.82;;;1.40;99.90;;;;;;5072467;28;20041;-81
2021/12/18 08:08:48;;;;;;;24.15;10.65;;;1.40;99.90;;;;;;5072321;28;20056;-81
2021/12/18 08:11:15;;;;;;;20.70;9.70;;;1.40;99.90;;;;;;5071756;28;20063;-81
2021/12/18 08:13:42;;;;;;;21.90;10.18;;;1.40;99.90;;;;;;5055870;28;20045;-80
2021/12/18 08:16:09;;;;;;;23.35;9.52;;;1.40;99.90;;;;;;5072420;28;20502;-82
2021/12/18 08:18:37;;;;;;;18.50;8.35;;;1.30;99.90;;;;;;5054457;28;20045;-82
2021/12/18 08:21:04;;;;;;;23.60;11.32;;;1.20;99.90;;;;;;5056719;28;20051;-81
2021/12/18 08:23:32;;;;;;;22.73;10.75;;;1.20;99.90;;;;;;5056684;28;20053;-81
2021/12/18 08:25:59;;;;;;;25.33;10.48;;;1.20;99.90;;;;;;5072613;28;20048;-82
2021/12/18 08:28:26;;;;;;;27.33;10.85;;;1.30;99.90;;;;;;5056770;28;20052;-81
2021/12/18 08:30:53;;;;;;;26.20;11.60;;;1.20;99.90;;;;;;5058470;28;20096;-80
2021/12/18 08:33:20;;;;;;;22.27;11.85;;;1.30;99.90;;;;;;5061325;28;20110;-80
2021/12/18 08:36:10;;;;;;;21.35;9.68;;;1.30;99.90;;;;;;5073868;28;20059;-80
2021/12/18 08:38:37;;;;;;;19.90;9.15;;;1.30;99.90;;;;;;5073805;28;20051;-83
2021/12/18 08:41:04;;;;;;;26.33;12.77;;;1.30;99.90;;;;;;5072737;28;20045;-81
2021/12/18 08:43:31;;;;;;;21.30;10.15;;;1.30;99.90;;;;;;5055891;28;20049;-81
2021/12/18 08:45:59;;;;;;;24.00;12.35;;;1.30;99.90;;;;;;5074166;28;20063;-81
2021/12/18 08:48:26;;;;;;;21.90;8.80;;;1.30;99.90;;;;;;5055669;28;20061;-80
2021/12/18 08:50:53;;;;;;;19.35;9.07;;;1.40;99.90;;;;;;5055039;28;20045;-81
2021/12/18 08:53:20;;;;;;;18.48;8.45;;;1.30;99.90;;;;;;5054860;28;20049;-80
2021/12/18 08:55:48;;;;;;;18.40;8.35;;;1.30;99.90;;;;;;5054868;28;20052;-80
2021/12/18 08:58:15;;;;;;;17.15;7.40;;;1.40;99.90;;;;;;5055210;28;20509;-82
2021/12/18 09:00:42;;;;;;;16.52;7.00;;;1.30;99.90;;;;;;5057513;28;20059;-81
2021/12/18 09:03:09;;;;;;;22.13;9.00;;;1.30;99.90;;;;;;5055436;28;20041;-81
2021/12/18 09:05:36;;;;;;;21.90;9.43;;;1.40;99.90;;;;;;5070675;28;20037;-80
2021/12/18 09:08:04;;;;;;;25.08;10.40;;;1.40;99.90;;;;;;5053501;28;20065;-81
2021/12/18 09:10:31;;;;;;;19.98;8.68;;;1.40;99.90;;;;;;5052514;28;20044;-81
2021/12/18 09:12:59;;;;;;;16.73;8.40;;;1.40;99.90;;;;;;5053191;28;20049;-81
2021/12/18 09:15:27;;;;;;;17.70;8.43;;;1.40;99.90;;;;;;5054746;28;20051;-80
2021/12/18 09:17:54;;;;;;;21.00;8.15;;;1.40;99.90;;;;;;5054942;28;20056;-80
2021/12/18 09:20:22;;;;;;;20.02;8.55;;;1.30;99.90;;;;;;5055560;28;20052;-82
2021/12/18 09:22:50;;;;;;;15.85;7.10;;;1.30;99.90;;;;;;5054842;28;20048;-82
2021/12/18 09:25:17;;;;;;;16.05;7.40;;;1.20;99.90;;;;;;5055551;28;20136;-81
2021/12/18 09:27:45;;;;;;;16.20;7.32;;;1.20;99.90;;;;;;5071147;28;20091;-82
2021/12/18 09:30:14;;;;;;;17.77;6.78;;;1.20;99.90;;;;;;5054421;28;20423;-82
2021/12/18 09:32:42;;;;;;;16.23;7.45;;;1.20;99.90;;;;;;5036451;28;20048;-80
2021/12/18 09:35:10;;;;;;;17.15;7.70;;;1.20;99.90;;;;;;5071503;28;20044;-82
2021/12/18 09:37:38;;;;;;;19.33;8.85;;;1.20;99.90;;;;;;5076250;28;20025;-80
2021/12/18 09:40:08;;;;;;;26.75;9.98;;;1.10;99.90;;;;;;5056632;28;20045;-80
2021/12/18 09:42:37;;;;;;;29.90;11.93;;;1.10;99.90;;;;;;5073228;28;20048;-82
2021/12/18 09:45:07;;;;;;;23.23;10.93;;;1.20;99.90;;;;;;5055346;28;20084;-81
2021/12/18 09:47:35;;;;;;;21.73;9.68;;;1.20;99.90;;;;;;5056118;28;20132;-81
2021/12/18 09:50:03;;;;;;;26.80;12.45;;;1.20;99.90;;;;;;5073996;28;20053;-80
2021/12/18 09:53:09;;;;;;;25.65;11.43;;;1.20;99.90;;;;;;5071088;28;20059;-82
2021/12/18 09:55:37;;;;;;;17.77;7.90;;;1.30;99.90;;;;;;5073365;28;20053;-82
2021/12/18 09:58:04;;;;;;;17.77;8.48;;;1.30;99.90;;;;;;5048367;28;20077;-82
2021/12/18 10:00:36;;;;;;;26.70;13.88;;;1.30;99.90;;;;;;5037065;28;20068;-81
2021/12/18 10:03:04;;;;;;;20.48;10.05;;;1.40;99.90;;;;;;5044827;28;20112;-82
2021/12/18 10:05:33;;;;;;;20.38;8.40;;;1.30;99.90;;;;;;5040734;28;20041;-82
2021/12/18 10:08:17;;;;;;;17.95;8.70;;;1.30;99.90;;;;;;5045522;28;20497;-82
2021/12/18 10:11:07;;;;;;;17.50;8.70;;;1.30;99.90;;;;;;5062459;28;20128;-82
2021/12/18 10:13:53;;;;;;;21.85;9.93;;;1.40;99.90;;;;;;5043209;28;20057;-83
2021/12/18 10:16:22;;;;;;;28.88;12.57;;;1.40;99.90;;;;;;5042272;28;20046;-81
2021/12/18 10:18:50;;;;;;;24.02;12.68;;;1.40;99.90;;;;;;5048441;28;20037;-81
2021/12/18 10:21:23;;;;;;;25.20;11.10;;;1.40;99.90;;;;;;5067648;28;20113;-82
2021/12/18 10:23:53;;;;;;;21.77;10.10;;;1.40;99.90;;;;;;5037661;28;20053;-83
2021/12/18 10:26:29;;;;;;;31.52;15.40;;;1.50;99.90;;;;;;5051848;28;20060;-82
2021/12/18 10:28:57;;;;;;;20.83;9.07;;;1.40;99.90;;;;;;5051231;28;20053;-81
2021/12/18 10:31:45;;;;;;;23.38;10.13;;;1.40;99.90;;;;;;5049281;28;20097;-82
2021/12/18 10:34:13;;;;;;;24.70;11.80;;;1.30;99.90;;;;;;5036919;28;20041;-81
2021/12/18 10:36:40;;;;;;;23.23;10.45;;;1.40;99.90;;;;;;5087003;28;20053;-81
2021/12/18 10:39:07;;;;;;;19.17;9.15;;;1.40;99.90;;;;;;5050994;28;20067;-82
2021/12/18 10:41:36;;;;;;;26.52;10.70;;;1.40;99.90;;;;;;5063835;28;20120;-83
2021/12/18 10:44:12;;;;;;;19.02;10.00;;;1.50;99.90;;;;;;5056886;28;20399;-81
2021/12/18 10:46:46;;;;;;;17.77;8.02;;;1.50;99.90;;;;;;5049773;28;20498;-82
2021/12/18 10:49:16;;;;;;;18.33;7.93;;;1.50;99.90;;;;;;5033645;28;20044;-82
2021/12/18 10:51:45;;;;;;;17.63;8.65;;;1.50;99.90;;;;;;5066879;28;20520;-81
2021/12/18 10:54:16;;;;;;;21.27;9.30;;;1.50;99.90;;;;;;5032998;28;20045;-81
2021/12/18 10:57:03;;;;;;;31.63;12.18;;;1.50;99.90;;;;;;5053136;28;20065;-80
2021/12/18 11:07:43;;;;;;;21.80;9.00;;;1.60;99.90;;;;;;5070558;28;20039;-80
2021/12/18 11:15:27;;;;;;;19.90;8.48;;;1.50;99.90;;;;;;5050337;28;20036;-80
2021/12/18 11:22:22;;;;;;;22.70;10.07;;;1.40;99.90;;;;;;5071041;28;20036;-79
2021/12/18 11:33:55;;;;;;;21.02;8.98;;;1.50;99.90;;;;;;5028405;28;20049;-81
2021/12/18 11:37:15;;;;;;;24.23;9.73;;;1.50;99.90;;;;;;4957410;28;20532;-81
2021/12/18 11:40:39;;;;;;;27.58;12.82;;;1.40;99.90;;;;;;4958156;29;20047;-81
2021/12/18 11:44:26;;;;;;;20.90;10.93;;;1.40;99.90;;;;;;4926725;29;20054;-81
2021/12/18 11:48:19;;;;;;;22.95;8.70;;;1.50;99.90;;;;;;4926899;29;20081;-81
2021/12/18 11:55:50;;;;;;;20.00;8.77;;;1.50;99.90;;;;;;4955132;28;20053;-80
2021/12/18 11:58:31;;;;;;;22.45;9.30;;;1.50;99.90;;;;;;4978886;28;20042;-80
2021/12/18 12:01:05;;;;;;;22.35;10.30;;;1.40;99.90;;;;;;4977900;28;20050;-81
2021/12/18 12:12:16;;;;;;;29.70;13.90;;;1.50;99.90;;;;;;4960577;29;20095;-81
2021/12/18 12:19:56;;;;;;;17.02;7.72;;;1.50;99.90;;;;;;4910318;29;20037;-81
2021/12/18 12:23:15;;;;;;;20.95;8.70;;;1.40;99.90;;;;;;5039439;28;20048;-81
2021/12/18 12:31:10;;;;;;;29.25;10.30;;;1.90;99.90;;;;;;5001466;28;20046;-81
2021/12/18 12:35:02;;;;;;;78.50;15.30;;;2.00;99.90;;;;;;5020520;28;20077;-82
2021/12/18 12:42:10;;;;;;;18.85;9.32;;;1.90;99.90;;;;;;5049147;22;20623;-74
2021/12/18 12:44:51;;;;;;;20.63;9.13;;;1.90;99.90;;;;;;5050376;28;20429;-74
2021/12/18 12:47:28;;;;;;;43.70;15.13;;;1.80;99.90;;;;;;5045183;28;20053;-74
2021/12/18 12:50:11;;;;;;;152.65;21.60;;;1.80;99.90;;;;;;5034079;28;20116;-74
2021/12/18 12:52:58;;;;;;;65.05;13.68;;;1.70;99.90;;;;;;5054032;28;20047;-74
2021/12/18 12:55:42;;;;;;;26.38;10.55;;;1.70;99.90;;;;;;5044004;28;20508;-75
2021/12/18 12:58:25;;;;;;;21.50;10.48;;;1.80;99.90;;;;;;5040924;28;20036;-74
2021/12/18 13:00:59;;;;;;;22.50;9.98;;;1.80;99.90;;;;;;5028116;28;20041;-74
2021/12/18 13:03:33;;;;;;;24.55;11.23;;;1.80;99.90;;;;;;5009532;28;20132;-74
2021/12/18 13:06:10;;;;;;;23.17;9.60;;;1.90;99.90;;;;;;5035194;28;20128;-75
2021/12/18 13:08:45;;;;;;;26.50;12.85;;;1.80;99.90;;;;;;5034205;28;20103;-74
2021/12/18 13:11:26;;;;;;;29.30;15.18;;;1.70;99.90;;;;;;5034958;28;20045;-74
2021/12/18 13:13:57;;;;;;;30.02;13.18;;;1.70;99.90;;;;;;5035866;28;20120;-75
2021/12/18 13:16:29;;;;;;;28.42;11.88;;;1.70;99.90;;;;;;5052701;28;20037;-74
2021/12/18 13:18:58;;;;;;;29.45;12.98;;;1.60;99.90;;;;;;5034739;28;20049;-74
2021/12/18 13:21:26;;;;;;;28.63;13.38;;;1.60;99.90;;;;;;5035329;28;20572;-74
2021/12/18 13:24:00;;;;;;;31.98;14.90;;;1.60;99.90;;;;;;5033959;28;20108;-74
2021/12/18 13:26:36;;;;;;;39.08;20.98;;;1.60;99.90;;;;;;5031417;28;20516;-73
2021/12/18 13:29:12;;;;;;;33.75;17.98;;;1.60;99.90;;;;;;5035627;28;20053;-74
2021/12/18 13:31:56;;;;;;;34.55;17.02;;;1.60;99.90;;;;;;5009753;28;20501;-74
2021/12/18 13:34:32;;;;;;;33.58;16.13;;;1.70;99.90;;;;;;5044038;28;20048;-74
2021/12/18 13:37:06;;;;;;;33.45;15.20;;;1.70;99.90;;;;;;5017063;28;20421;-75
2021/12/18 13:39:45;;;;;;;33.75;15.13;;;1.70;99.90;;;;;;5017384;28;20045;-74
2021/12/18 13:42:23;;;;;;;35.10;17.17;;;1.70;99.90;;;;;;5035691;28;20087;-74
2021/12/18 13:44:50;;;;;;;;;;;1.60;99.90;;;;;;5034787;28;20102;-74
2021/12/18 13:47:19;;;;;;;44.63;18.08;;;1.70;99.90;;;;;;5034770;28;19920;-74
2021/12/18 13:49:48;;;;;;;34.85;16.75;;;1.60;99.90;;;;;;5034961;28;20049;-74
2021/12/18 13:52:34;;;;;;;36.05;15.30;;;1.60;99.90;;;;;;5051666;28;20044;-75
2021/12/18 13:55:01;;;;;;;33.83;15.63;;;1.60;99.90;;;;;;5034808;28;20112;-74
2021/12/18 13:57:27;;;;;;;34.88;15.23;;;1.60;99.90;;;;;;5017999;28;20517;-74
2021/12/18 13:59:59;;;;;;;36.38;17.27;;;1.50;99.90;;;;;;5017751;28;20051;-75
2021/12/18 14:02:31;;;;;;;32.58;15.05;;;1.50;99.90;;;;;;5034848;28;20053;-75
2021/12/18 14:05:05;;;;;;;35.15;16.02;;;1.50;99.90;;;;;;5034664;28;20132;-74
2021/12/18 14:07:37;;;;;;;41.10;16.92;;;1.50;99.90;;;;;;5035505;28;20041;-75
2021/12/18 14:10:10;;;;;;;36.05;16.60;;;1.50;99.90;;;;;;5018670;28;20412;-75
2021/12/18 14:12:37;;;;;;;33.85;15.43;;;1.50;99.90;;;;;;5033801;28;20481;-75
2021/12/18 14:15:15;;;;;;;44.30;19.15;;;1.50;99.90;;;;;;5034654;28;20056;-74
2021/12/18 14:17:42;;;;;;;29.08;12.20;;;1.60;99.90;;;;;;5034135;28;20051;-75
2021/12/18 14:20:12;;;;;;;29.23;11.45;;;1.60;99.90;;;;;;5034452;28;20045;-74
2021/12/18 14:22:44;;;;;;;25.65;12.50;;;1.50;99.90;;;;;;5034390;28;20124;-75
2021/12/18 14:25:18;;;;;;;27.52;11.55;;;1.40;99.90;;;;;;5034239;28;20622;-75
2021/12/18 14:27:52;;;;;;;26.42;11.35;;;1.40;99.90;;;;;;5034229;28;20041;-74
2021/12/18 14:30:27;;;;;;;27.35;12.40;;;1.40;99.90;;;;;;5033884;28;20045;-75
2021/12/18 14:33:10;;;;;;;21.80;9.48;;;1.40;99.90;;;;;;5017593;28;20037;-75
2021/12/18 14:35:52;;;;;;;25.67;10.73;;;1.40;99.90;;;;;;5051943;28;20051;-74
2021/12/18 14:38:24;;;;;;;24.15;11.15;;;1.40;99.90;;;;;;5034863;28;20516;-75
2021/12/18 14:41:01;;;;;;;22.63;10.55;;;1.40;99.90;;;;;;5034854;28;20064;-75
2021/12/18 14:43:27;;;;;;;22.42;10.60;;;1.40;99.90;;;;;;5017221;28;20041;-75